LKKU  Kunovice Airport

Add Bookmark

Uherské Hradiště, Czech Republic

Status IATA
Operational UHE
Latitude Longitude
49° 1' 45" N 17° 26' 22" E
49.029400 17.439699
Local (DST + 2) UTC (GMT + 1)
Oct 25, 2014 08:11 Oct 25, 2014 18:11
Sunrise-Sunset Local UTC
Begin Civil Twilight 06:52 04:52
Sunrise 07:25 05:25
Sunset 05:43 15:43
End Civil Twilight 06:15 16:15

Current Weather

METAR Observed MVFR
LKKU 250800Z 00000KT 6000 FEW015 BKN021 06/04 Q1024 Sat, Oct 25, 2014 @ 08:00 UTC
(10 Hours, 11 Minutes ago)
Marginal Visual Flight Rules
Wind Visibility Clouds Conditions
Calm 6000 meters
  • Few at 1,500' AGL
  • Broken at 2,100' AGL
  • No significant weather
Temperatures Readings Precipitation
Current Temp 6°C (43°F)
Dewpoint 4°C (39°F)
Humidity 87%
Altimeter 30.24"Hg
Sea Level Pressure 1024mb
Field Elevation 580.71'
None Recorded

Additional weather within a 92.6km radius of LKKU

Map ICAO Location
LZPP 53.2km S (148°)
LKTB 55.9km W (284°)
LZZI 88.3km E (075°)
LKMT 88.5km N (033°)

24 Hour Weather History

Loading
-

24 Hour Weather Graphs

Loading
-

CheckWX.com is intended as a tool to help pilots better visualize weather data. It is not intended as a substitute for an official weather briefing obtained from a Flight Service Station. CheckWX.com does not meet the FAA requirements for an official pre-flight weather briefing. Therefore, it's important that pilots still call and obtain an official FSS pre-flight weather briefing.